• Join FlightAware (Why Join?)
  • Login
  • US Flag 
11:47AM EDT


 

Airport Tracker/Info


-or-


 

Live Flight TrackerFlight Track Log ✈ JBU56 ✈ 18-Nov-2013 ✈ KIAD - KBOS

Flight Track Log - Related Links

Times and Time Zones

All times are in EST time to prevent confusion due to time zone crossing. See the JBU56 flight status page for this flight to view local times or setup timezone preferences in your user account.

Time Position Orientation Groundspeed Altitude Reporting Facility
EST Latitude Longitude Course Direction KTS MPH feet Rate Location/Type
09:56AM 38.9500 -77.5167 90° East 162 186 2,000  Level Potomac TRACON
09:57AM 39.0167 -77.5167 360° North 217 250 3,100 1,380 Climbing Potomac TRACON
09:59AM 39.2150 -76.9996 74° East  Level Estimated
09:59AM 39.1061 -77.5336 352° North 246 283 5,500  Level Washington Center
10:00AM 39.2816 -76.8840 90° East  Level Estimated
10:00AM 39.1714 -77.4925 26° Northeast 252 290 9,100  Level Washington Center
10:01AM 39.3481 -76.7681 90° East  Level Estimated
10:01AM 39.1775 -77.3747 86° East 226 260 10,100  Level Washington Center
10:02AM 39.1333 -77.2453 114° Southeast 280 322 11,000 1,500 Climbing Washington Center
10:03AM 39.0872 -77.1133 114° Southeast 338 389 13,100 2,220 Climbing Washington Center
10:04AM 39.0514 -76.9681 108° East 388 447 15,500 2,280 Climbing Washington Center
10:05AM 39.0697 -76.8108 81° East 414 476 17,800 1,740 Climbing Washington Center
10:06AM 39.0942 -76.6506 79° East 429 494 19,000 1,560 Climbing Washington Center
10:07AM 39.1164 -76.4850 80° East 452 520 20,900 1,800 Climbing Washington Center
10:08AM 39.1383 -76.3194 80° East 464 534 22,700 1,020 Climbing Washington Center
10:09AM 39.1600 -76.1456 81° East 477 549 23,000 360 Climbing Washington Center
10:10AM 39.1794 -75.9744 82° East 482 555 23,500 1,140 Climbing Washington Center
10:11AM 39.2444 -75.8247 61° Northeast 472 543 25,300 1,680 Climbing Washington Center
10:12AM 39.3447 -75.6908 46° Northeast 468 539 26,900 1,320 Climbing Washington Center
10:13AM 39.4303 -75.5756 46° Northeast 479 551 28,000 1,200 Climbing Washington Center
10:14AM 39.5364 -75.4381 45° Northeast 484 557 29,400 1,260 Climbing Washington Center
10:15AM 39.6258 -75.3222 45° Northeast 490 564 30,600 660 Climbing Washington Center
10:16AM 39.7622 -75.1269 48° Northeast 510 587 31,000 120 Climbing New York Center
10:17AM 39.8483 -74.9917 50° Northeast 529 609 31,000  Level New York Center
10:18AM 39.9431 -74.8511 49° Northeast 529 609 31,000  Level New York Center
10:19AM 40.0442 -74.6944 50° Northeast 523 602 31,000  Level New York Center
10:20AM 40.1425 -74.5533 48° Northeast 518 596 31,000  Level New York Center
10:21AM 40.2300 -74.4222 49° Northeast 518 596 31,000  Level New York Center
10:22AM 40.3328 -74.2614 50° Northeast 524 603 31,000  Level New York Center
10:24AM 40.5175 -73.9769 49° Northeast 527 606 31,000  Level Boston Center
10:25AM 40.6139 -73.8319 49° Northeast 526 605 31,000 -180 Level Boston Center
10:26AM 40.7083 -73.6839 50° Northeast 527 606 30,700 -1,440 Descending Boston Center
10:27AM 40.8011 -73.5369 50° Northeast 524 603 28,100 -1,920 Descending Boston Center
10:28AM 40.8925 -73.3931 50° Northeast 511 588 26,900 -1,080 Descending Boston Center
10:29AM 40.9831 -73.2597 48° Northeast 505 581 25,900 -1,020 Descending Boston Center
10:30AM 41.0747 -73.1253 48° Northeast 497 572 24,900 -1,140 Descending Boston Center
10:31AM 41.1581 -72.9836 52° Northeast 491 565 23,700 -1,200 Descending Boston Center
10:32AM 41.2231 -72.8250 61° Northeast 491 565 22,500 -1,260 Descending Boston Center
10:33AM 41.2931 -72.6531 62° Northeast 485 558 21,200 -780 Descending Boston Center
10:34AM 41.3528 -72.4942 63° Northeast 479 551 21,000 -120 Descending Boston Center
10:35AM 41.4128 -72.3367 63° Northeast 475 547 21,000  Level Boston Center
10:36AM 41.4711 -72.1781 64° Northeast 477 549 21,000  Level Boston Center
10:37AM 41.5297 -72.0203 64° Northeast 476 548 21,000 -120 Level Boston Center
10:38AM 41.5900 -71.8522 64° Northeast 473 544 20,800 -1,380 Descending Boston Center
10:39AM 41.6531 -71.6817 64° Northeast 472 543 18,300 -2,460 Descending Boston Center
10:40AM 41.7119 -71.5233 63° Northeast 451 519 15,800 -2,400 Descending Boston Center
10:41AM 41.7650 -71.3744 64° Northeast 447 514 13,400 -2,340 Descending Boston Center
10:42AM 41.8181 -71.2264 64° Northeast 442 509 11,100 -1,200 Descending Boston Center
10:43AM 41.8703 -71.0878 63° Northeast 421 484 11,000 -60 Descending Boston Center
10:44AM 41.9267 -70.9578 60° Northeast 378 435 11,000  Level Boston Center
10:45AM 41.9786 -70.8383 60° Northeast 373 429 11,000 -480 Level Boston Center
10:46AM 42.0367 -70.7250 55° Northeast 376 433 10,100 -1,440 Descending Boston Center
10:47AM 42.1103 -70.6219 46° Northeast 381 438 8,100 -1,620 Descending Boston Center
10:48AM 42.2017 -70.6156 North 336 387 6,800 -1,320 Descending Boston Center
10:49AM 42.2828 -70.6275 354° North 301 346 5,400 -1,560 Descending Boston Center
10:50AM 42.3472 -70.6636 338° Northwest 263 303 3,700 -1,200 Descending Boston Center
10:51AM 42.3861 -70.7261 310° West 246 283 3,000 -780 Descending Boston Center
10:52AM 42.3900 -70.7864 275° West 188 216 2,200 -660 Descending Boston Center
10:53AM 42.3842 -70.8614 264° West 171 197 1,700 -600 Descending Boston Center
10:54AM 42.3733 -70.9200 256° West 164 189 1,100 -660 Descending Boston Center
10:55AM 42.3647 -70.9672 256° West 135 155 400 -480 Descending Boston Center
10:56AM 42.3575 -71.0128 258° West 133 153 200 -240 Descending Boston Center